CST,Max TemperatureF,Mean TemperatureF,Min TemperatureF,Max Dew PointF,MeanDew PointF,Min DewpointF,Max Humidity, Mean Humidity, Min Humidity, Max Sea Level PressureIn, Mean Sea Level PressureIn, Min Sea Level PressureIn, Max VisibilityMiles, Mean VisibilityMiles, Min VisibilityMiles, Max Wind SpeedMPH, Mean Wind SpeedMPH, Max Gust SpeedMPH,PrecipitationIn, CloudCover, Events, WindDirDegrees
2012-12-1,63,51,38,47,42,36,89,72,55,30.21,30.15,30.06,10,7,5,18,11,22,0.00,4,,174
2012-12-2,67,62,57,59,56,47,97,80,62,30.10,30.06,30.00,10,6,2,22,13,29,0.04,8,Rain,202
2012-12-3,73,66,59,59,56,50,90,74,57,30.09,30.05,30.00,10,8,6,29,14,36,0.00,3,,189
2012-12-4,63,51,38,56,47,36,92,78,64,30.28,30.11,30.01,10,9,4,17,9,21,0.01,5,Rain,283
2012-12-5,54,43,31,37,32,28,96,71,46,30.40,30.31,30.22,10,6,0,12,6,15,0.00,0,Fog,23
2012-12-6,51,41,30,45,37,26,93,77,61,30.20,30.06,29.98,10,7,3,10,5,13,0.00,5,,136
2012-12-7,56,51,46,54,49,45,100,93,86,29.98,29.89,29.82,4,1,0,9,4,10,0.10,8,Fog-Rain,124
2012-12-8,51,47,42,49,45,39,100,87,74,30.02,29.94,29.86,8,4,0,15,6,17,0.01,8,Fog-Rain,345
2012-12-9,59,52,44,56,50,39,93,87,80,30.00,29.82,29.73,8,4,1,21,8,25,0.25,8,Rain-Thunderstorm,265
2012-12-10,44,38,31,37,28,24,85,79,72,30.06,29.89,29.80,10,8,5,22,13,25,0.00,8,,305
2012-12-11,38,31,24,24,22,19,81,67,52,30.28,30.17,30.06,10,10,7,15,7,18,0.00,1,,227
2012-12-12,47,35,22,29,24,18,88,67,45,30.40,30.36,30.29,10,8,4,9,4,12,0.00,0,,160
2012-12-13,50,36,22,30,24,19,88,64,39,30.43,30.35,30.27,10,8,5,15,7,18,0.00,0,,159
2012-12-14,55,41,27,35,29,22,78,58,38,30.30,30.21,30.10,10,10,8,14,7,17,0.00,0,,168
2012-12-15,56,50,43,52,45,34,96,81,65,30.07,29.85,29.73,10,7,2,25,14,33,0.22,6,Rain,170
2012-12-16,53,45,36,50,43,36,100,86,71,29.76,29.73,29.70,10,3,0,13,5,15,0.00,3,Fog,197
2012-12-17,46,41,36,43,39,35,93,88,82,29.78,29.69,29.61,8,3,0,17,8,20,0.13,7,Fog-Rain-Thunderstorm,349
2012-12-18,51,44,37,40,35,32,92,76,59,29.92,29.83,29.71,10,6,4,22,12,29,0.00,5,,224
2012-12-19,54,42,30,42,34,28,89,77,65,30.08,29.97,29.71,10,5,2,23,8,28,0.00,4,,83
2012-12-20,59,45,30,55,38,23,96,77,57,29.78,29.46,29.29,10,6,1,44,26,58,0.26,8,Rain-Snow-Thunderstorm,220
2012-12-21,35,29,23,25,20,17,85,66,47,30.28,30.03,29.78,10,8,2,32,20,44,T,3,Snow,294
2012-12-22,39,29,18,25,19,15,84,66,48,30.34,30.21,30.02,10,9,6,7,5,8,0.00,0,,193
2012-12-23,53,40,27,34,29,22,85,63,41,29.99,29.95,29.88,10,10,9,10,5,12,0.00,1,,41
2012-12-24,45,38,30,36,31,25,85,75,65,30.11,29.90,29.80,9,5,1,22,9,25,T,8,Rain,333
2012-12-25,35,32,29,27,25,23,85,75,64,30.22,30.13,29.90,8,5,2,24,12,33,0.00,8,Snow,28
2012-12-26,35,33,31,30,27,25,92,81,69,30.10,29.83,29.68,10,3,0,32,20,41,0.00,8,Fog-Snow-Thunderstorm,357
2012-12-27,33,31,29,26,24,21,85,74,63,30.23,30.18,30.12,10,8,6,14,5,,0.00,8,,307
2012-12-28,35,32,29,30,28,25,100,89,78,30.14,29.99,29.84,6,3,0,13,6,14,0.00,8,Fog-Snow,85
2012-12-29,32,24,16,29,23,11,92,80,68,30.37,30.06,29.83,8,4,1,22,12,26,0.01,7,Snow,303
2012-12-30,25,12,-1,19,10,-3,100,87,74,30.52,30.42,30.32,6,2,0,14,6,15,0.00,0,Fog,176
2012-12-31,35,29,22,32,29,20,92,84,75,30.30,30.16,30.08,6,2,0,16,7,18,0.28,7,Fog-Rain-Snow,199